createdAt,value
2018-07-11T00:01:41.929Z,88.80
2018-07-11T00:03:48.204Z,89.00
2018-07-11T00:05:54.659Z,89.60
2018-07-11T00:08:00.347Z,90.00
2018-07-11T00:12:09.063Z,89.00
2018-07-11T00:14:17.915Z,88.40
2018-07-11T00:16:21.763Z,88.60
2018-07-11T00:18:27.319Z,88.50
2018-07-11T00:20:38.072Z,88.50
2018-07-11T00:22:42.652Z,88.40
2018-07-11T00:24:46.569Z,88.10
2018-07-11T00:26:51.982Z,88.20
2018-07-11T00:28:57.167Z,88.60
2018-07-11T00:31:02.118Z,88.60
2018-07-11T00:33:06.746Z,88.50
2018-07-11T00:35:10.829Z,88.40
2018-07-11T00:37:17.282Z,88.80
2018-07-11T00:39:23.170Z,89.20
2018-07-11T00:41:30.653Z,89.00
2018-07-11T00:43:37.662Z,88.40
2018-07-11T00:45:41.645Z,88.20
2018-07-11T00:47:46.476Z,87.70
2018-07-11T00:49:52.521Z,87.80
2018-07-11T00:52:02.408Z,87.80
2018-07-11T00:54:07.799Z,88.30
2018-07-11T00:56:11.724Z,88.20
2018-07-11T00:58:37.780Z,88.30
2018-07-11T01:00:41.666Z,87.40
2018-07-11T01:02:49.983Z,87.40
2018-07-11T01:07:03.340Z,88.10
2018-07-11T01:09:07.437Z,88.40
2018-07-11T01:11:15.726Z,88.40
2018-07-11T01:13:19.650Z,88.60
2018-07-11T01:17:32.339Z,88.80
2018-07-11T01:19:37.311Z,89.00
2018-07-11T01:21:41.245Z,89.40
2018-07-11T01:23:54.124Z,89.70
2018-07-11T01:26:20.394Z,89.70
2018-07-11T01:28:24.308Z,90.00
2018-07-11T01:30:31.755Z,90.00
2018-07-11T01:32:35.724Z,89.80
2018-07-11T01:34:39.706Z,89.80
2018-07-11T01:36:44.398Z,89.70
2018-07-11T01:38:52.089Z,90.00
2018-07-11T01:40:58.338Z,90.00
2018-07-11T01:43:02.579Z,90.00
2018-07-11T01:45:06.968Z,89.50
2018-07-11T01:47:11.755Z,89.70
2018-07-11T01:49:15.768Z,90.10
2018-07-11T01:51:21.404Z,90.10
2018-07-11T01:53:26.162Z,90.20
2018-07-11T01:55:33.755Z,90.10
2018-07-11T01:57:38.228Z,90.20
2018-07-11T01:59:42.107Z,90.10
2018-07-11T02:01:46.611Z,90.20
2018-07-11T02:03:50.620Z,90.00
2018-07-11T02:05:54.606Z,89.70
2018-07-11T02:08:03.279Z,89.40
2018-07-11T02:10:07.338Z,89.40
2018-07-11T02:12:11.282Z,89.40
2018-07-11T02:14:17.273Z,89.60
2018-07-11T02:16:21.199Z,89.60
2018-07-11T02:18:30.718Z,89.70
2018-07-11T02:20:38.443Z,90.00
2018-07-11T02:22:46.130Z,90.20
2018-07-11T02:24:50.318Z,90.30
2018-07-11T02:26:55.789Z,90.30
2018-07-11T02:29:00.143Z,90.30
2018-07-11T02:31:04.434Z,90.10
2018-07-11T02:33:09.533Z,90.20
2018-07-11T02:35:13.501Z,90.50
2018-07-11T02:37:17.403Z,90.50
2018-07-11T02:39:22.661Z,91.00
2018-07-11T02:41:26.552Z,91.30
2018-07-11T02:43:30.511Z,91.30
2018-07-11T02:45:34.585Z,90.90
2018-07-11T02:47:42.451Z,90.70
2018-07-11T02:49:46.953Z,90.70
2018-07-11T02:51:58.469Z,90.40
2018-07-11T02:54:02.387Z,90.10
2018-07-11T02:56:06.313Z,90.10
2018-07-11T02:58:10.942Z,90.30
2018-07-11T03:00:17.026Z,90.40
2018-07-11T03:02:20.965Z,90.60
2018-07-11T03:04:25.415Z,89.80
2018-07-11T03:06:29.340Z,89.70
2018-07-11T03:08:37.124Z,89.40
2018-07-11T03:10:41.424Z,89.20
2018-07-11T03:12:46.097Z,89.30
2018-07-11T03:16:55.555Z,89.10
2018-07-11T03:18:59.529Z,89.40
2018-07-11T03:21:04.098Z,89.20
2018-07-11T03:23:08.418Z,89.70
2018-07-11T03:25:12.437Z,89.70
2018-07-11T03:27:16.377Z,89.80
2018-07-11T03:29:21.639Z,89.80
2018-07-11T03:31:25.822Z,90.00
2018-07-11T03:33:29.815Z,90.00
2018-07-11T03:35:34.072Z,90.00
2018-07-11T03:37:37.945Z,90.10
2018-07-11T03:39:42.451Z,90.30
2018-07-11T03:41:46.374Z,90.40
2018-07-11T03:43:50.450Z,90.30
2018-07-11T03:45:54.401Z,90.20
2018-07-11T03:47:58.625Z,90.10
2018-07-11T03:50:05.606Z,90.10
2018-07-11T03:52:09.544Z,90.00
2018-07-11T03:54:14.416Z,90.00
2018-07-11T03:56:18.296Z,89.60
2018-07-11T03:58:22.207Z,89.60
2018-07-11T04:00:26.926Z,89.60
2018-07-11T04:02:30.807Z,89.70
2018-07-11T04:04:34.763Z,89.60
2018-07-11T04:06:39.378Z,89.60
2018-07-11T04:08:43.410Z,89.80
2018-07-11T04:10:47.363Z,90.00
2018-07-11T04:12:58.660Z,90.40
2018-07-11T04:15:04.772Z,90.60
2018-07-11T04:17:08.655Z,90.50
2018-07-11T04:19:13.000Z,90.80
2018-07-11T04:21:16.877Z,90.90
2018-07-11T04:23:20.811Z,90.70
2018-07-11T04:25:25.173Z,90.40
2018-07-11T04:27:29.075Z,90.40
2018-07-11T04:29:32.967Z,90.10
2018-07-11T04:31:37.306Z,89.60
2018-07-11T04:33:41.664Z,89.20
2018-07-11T04:37:50.475Z,87.80
2018-07-11T04:39:54.405Z,86.70
2018-07-11T04:41:58.386Z,85.60
2018-07-11T04:44:02.719Z,83.70
2018-07-11T04:46:06.860Z,83.50
2018-07-11T04:48:10.865Z,83.80
2018-07-11T04:50:14.866Z,82.90
2018-07-11T04:52:18.781Z,83.00
2018-07-11T04:54:22.722Z,81.90
2018-07-11T04:56:27.638Z,81.40
2018-07-11T04:58:32.257Z,81.00
2018-07-11T05:00:36.227Z,81.10
2018-07-11T05:04:43.861Z,81.80
2018-07-11T05:06:47.814Z,82.40
2018-07-11T05:08:52.453Z,83.00
2018-07-11T05:10:56.421Z,83.90
2018-07-11T05:13:03.186Z,84.60
2018-07-11T05:17:10.662Z,85.60
2018-07-11T05:19:14.604Z,85.60
2018-07-11T05:21:18.549Z,84.70
2018-07-11T05:23:22.507Z,82.40
2018-07-11T05:25:28.966Z,82.70
2018-07-11T05:27:33.309Z,81.60
2018-07-11T05:29:38.612Z,80.60
2018-07-11T05:31:43.605Z,80.10
2018-07-11T05:33:47.755Z,81.00
2018-07-11T05:35:55.800Z,82.00
2018-07-11T05:38:00.211Z,82.90
2018-07-11T05:40:07.451Z,83.00
2018-07-11T05:42:13.523Z,82.40
2018-07-11T05:44:19.457Z,82.20
2018-07-11T05:46:23.549Z,82.50
2018-07-11T05:48:29.575Z,82.20
2018-07-11T05:50:33.561Z,82.30
2018-07-11T05:52:37.572Z,81.70
2018-07-11T05:54:41.560Z,82.80
2018-07-11T05:56:46.872Z,83.70
2018-07-11T05:58:51.566Z,83.80
2018-07-11T06:00:56.300Z,83.60
2018-07-11T06:03:00.198Z,83.30
2018-07-11T06:05:06.359Z,83.00
2018-07-11T06:07:11.333Z,83.00
2018-07-11T06:09:19.026Z,83.00
2018-07-11T06:11:24.651Z,82.90
2018-07-11T06:13:29.282Z,82.80
2018-07-11T06:15:33.862Z,81.60
2018-07-11T06:17:39.038Z,81.70
2018-07-11T06:19:59.803Z,80.20
2018-07-11T06:22:14.045Z,80.90
2018-07-11T06:24:18.401Z,79.20
2018-07-11T06:26:22.796Z,79.20
2018-07-11T06:28:30.012Z,78.80
2018-07-11T06:30:37.494Z,79.30
2018-07-11T06:32:42.451Z,79.00
2018-07-11T06:34:50.284Z,79.30
2018-07-11T06:36:54.653Z,77.90
2018-07-11T06:39:27.338Z,77.90
2018-07-11T06:41:31.728Z,76.70
2018-07-11T06:43:35.739Z,77.70
2018-07-11T06:45:39.961Z,76.80
2018-07-11T06:47:45.296Z,78.60
2018-07-11T06:49:51.588Z,79.00
2018-07-11T06:51:58.565Z,78.40
2018-07-11T06:54:06.152Z,78.30
2018-07-11T06:56:10.591Z,77.50
2018-07-11T06:58:18.060Z,77.80
2018-07-11T07:00:30.491Z,76.60
2018-07-11T07:02:35.740Z,75.30
2018-07-11T07:04:39.659Z,75.50
2018-07-11T07:06:44.768Z,74.70
2018-07-11T07:08:49.350Z,74.70
2018-07-11T07:10:54.583Z,74.20
2018-07-11T07:13:00.799Z,72.60
2018-07-11T07:15:09.074Z,72.00
2018-07-11T07:17:14.329Z,71.40
2018-07-11T07:19:21.608Z,72.00
2018-07-11T07:21:25.688Z,72.30
2018-07-11T07:23:31.017Z,72.80
2018-07-11T07:25:35.456Z,73.50
2018-07-11T07:27:40.283Z,73.80
2018-07-11T07:31:53.300Z,73.00
2018-07-11T07:33:57.468Z,71.80
2018-07-11T07:36:01.934Z,71.50
2018-07-11T07:38:06.673Z,72.00
2018-07-11T07:40:11.538Z,71.40
2018-07-11T07:42:22.224Z,70.80
2018-07-11T07:44:26.180Z,69.50
2018-07-11T07:46:30.205Z,68.20
2018-07-11T07:48:35.582Z,67.70
2018-07-11T07:50:39.505Z,68.10
2018-07-11T07:52:44.116Z,67.30
2018-07-11T07:54:49.292Z,66.60
2018-07-11T07:56:53.320Z,66.60
2018-07-11T08:01:10.363Z,66.20
2018-07-11T08:03:16.281Z,65.90
2018-07-11T08:05:20.521Z,66.40
2018-07-11T08:07:26.247Z,66.60
2018-07-11T08:09:30.259Z,66.20
2018-07-11T08:11:36.703Z,67.40
2018-07-11T08:13:42.184Z,67.80
2018-07-11T08:15:46.113Z,68.10
2018-07-11T08:17:50.955Z,67.60
2018-07-11T08:19:56.130Z,67.40
2018-07-11T08:22:11.619Z,67.70
2018-07-11T08:24:27.009Z,68.50
2018-07-11T08:26:43.387Z,68.00
2018-07-11T08:30:00.798Z,68.40
2018-07-11T08:34:51.082Z,68.20
2018-07-11T08:37:06.100Z,68.50
2018-07-11T08:41:24.120Z,65.90
2018-07-11T08:45:59.763Z,65.50
2018-07-11T08:50:29.910Z,64.60
2018-07-11T08:55:21.173Z,62.00
2018-07-11T08:57:40.408Z,60.20
2018-07-11T09:01:08.422Z,58.80
2018-07-11T09:06:03.218Z,59.90
2018-07-11T09:10:25.846Z,59.50
2018-07-11T09:12:39.449Z,60.30
2018-07-11T09:17:03.166Z,59.20
2018-07-11T09:19:53.416Z,58.70
2018-07-11T09:22:08.804Z,59.60
2018-07-11T09:24:47.216Z,58.90
2018-07-11T09:26:51.193Z,59.00
2018-07-11T09:28:58.536Z,57.50
2018-07-11T09:31:13.912Z,58.50
2018-07-11T09:33:40.422Z,57.60
2018-07-11T09:35:50.384Z,57.60
2018-07-11T09:37:54.971Z,58.50
2018-07-11T09:40:03.122Z,58.60
2018-07-11T09:44:17.406Z,60.60
2018-07-11T09:46:22.865Z,59.30
2018-07-11T09:48:27.946Z,58.40
2018-07-11T09:50:32.583Z,56.80
2018-07-11T09:52:36.665Z,55.60
2018-07-11T09:54:41.069Z,53.40
2018-07-11T09:56:46.168Z,53.20
2018-07-11T09:58:50.128Z,52.80
2018-07-11T10:01:00.605Z,51.60
2018-07-11T10:03:05.587Z,51.20
2018-07-11T10:05:16.905Z,52.60
2018-07-11T10:07:21.041Z,53.60
2018-07-11T10:09:29.359Z,52.10
2018-07-11T10:11:37.421Z,51.10
2018-07-11T10:13:42.321Z,50.20
2018-07-11T10:15:47.581Z,49.70
2018-07-11T10:17:54.491Z,50.10
2018-07-11T10:19:59.341Z,50.90
2018-07-11T10:22:05.017Z,52.40
2018-07-11T10:24:09.911Z,54.00
2018-07-11T10:28:27.885Z,54.60
2018-07-11T10:30:33.194Z,56.10
2018-07-11T10:32:38.042Z,55.20
2018-07-11T10:34:42.354Z,54.80
2018-07-11T10:36:48.517Z,54.50
2018-07-11T10:38:52.496Z,53.90
2018-07-11T10:40:57.454Z,53.20
2018-07-11T10:43:01.853Z,52.00
2018-07-11T10:45:06.772Z,50.80
2018-07-11T10:47:15.199Z,49.80
2018-07-11T10:51:26.669Z,47.90
2018-07-11T10:53:32.959Z,47.30
2018-07-11T10:55:39.759Z,46.90
2018-07-11T10:57:44.280Z,47.80
2018-07-11T11:01:51.209Z,48.50
2018-07-11T11:03:55.823Z,48.00
2018-07-11T11:06:00.440Z,47.30
2018-07-11T11:08:18.843Z,47.20
2018-07-11T11:10:32.920Z,46.40
2018-07-11T11:12:40.641Z,45.60
2018-07-11T11:15:01.057Z,46.30
2018-07-11T11:19:20.556Z,45.60
2018-07-11T11:21:28.149Z,45.30
2018-07-11T11:26:27.653Z,45.30
2018-07-11T11:28:32.200Z,45.30
2018-07-11T11:30:37.132Z,45.20
2018-07-11T11:32:42.686Z,44.90
2018-07-11T11:34:52.736Z,44.80
2018-07-11T11:36:57.063Z,45.60
2018-07-11T11:39:01.375Z,44.20
2018-07-11T11:41:10.368Z,45.30
2018-07-11T11:43:17.085Z,45.90
2018-07-11T11:45:23.076Z,48.00
2018-07-11T11:47:28.600Z,50.20
2018-07-11T11:49:34.354Z,51.60
2018-07-11T11:51:38.567Z,52.70
2018-07-11T11:53:46.401Z,53.30
2018-07-11T11:55:51.392Z,53.30
2018-07-11T11:57:56.653Z,53.80
2018-07-11T12:00:02.198Z,53.60
2018-07-11T12:04:13.971Z,54.80
2018-07-11T12:06:21.435Z,54.80
2018-07-11T12:08:27.558Z,55.50
2018-07-11T12:10:44.440Z,56.10
2018-07-11T12:14:54.240Z,56.80
2018-07-11T12:16:59.300Z,57.90
2018-07-11T12:19:23.561Z,57.70
2018-07-11T12:21:28.404Z,57.50
2018-07-11T12:23:33.533Z,58.30
2018-07-11T12:25:44.976Z,59.00
2018-07-11T12:27:49.921Z,59.20
2018-07-11T12:29:57.195Z,59.70
2018-07-11T12:32:01.957Z,59.30
2018-07-11T12:34:07.867Z,58.00
2018-07-11T12:36:12.036Z,57.50
2018-07-11T12:38:19.174Z,58.20
2018-07-11T12:40:27.278Z,56.90
2018-07-11T12:42:33.363Z,55.80
2018-07-11T12:44:41.080Z,55.40
2018-07-11T12:46:51.777Z,55.70
2018-07-11T12:49:01.755Z,55.30
2018-07-11T12:51:06.306Z,55.00
2018-07-11T12:53:10.364Z,54.80
2018-07-11T12:55:15.530Z,54.10
2018-07-11T12:57:20.678Z,53.10
2018-07-11T12:59:28.878Z,52.60
2018-07-11T13:01:39.827Z,50.50
2018-07-11T13:03:52.401Z,49.50
2018-07-11T13:05:57.187Z,48.40
2018-07-11T13:08:02.478Z,48.80
2018-07-11T13:10:08.239Z,47.20
2018-07-11T13:12:17.702Z,45.90
2018-07-11T13:14:29.601Z,44.80
2018-07-11T13:16:34.205Z,43.40
2018-07-11T13:18:38.223Z,42.60
2018-07-11T13:20:43.737Z,43.30
2018-07-11T13:22:49.352Z,44.80
2018-07-11T13:24:53.941Z,44.60
2018-07-11T13:26:57.883Z,44.90
2018-07-11T13:29:07.647Z,45.20
2018-07-11T13:31:12.343Z,44.70
2018-07-11T13:33:18.021Z,43.90
2018-07-11T13:35:30.353Z,43.90
2018-07-11T13:37:35.415Z,43.10
2018-07-11T13:39:39.336Z,43.00
2018-07-11T13:41:51.742Z,42.30
2018-07-11T13:43:57.539Z,42.10
2018-07-11T13:46:03.336Z,41.80
2018-07-11T13:48:09.750Z,41.80
2018-07-11T13:50:14.192Z,41.80
2018-07-11T13:52:18.371Z,42.10
2018-07-11T13:54:28.766Z,42.10
2018-07-11T13:56:33.284Z,42.60
2018-07-11T13:58:38.821Z,42.90
2018-07-11T14:03:12.282Z,43.30
2018-07-11T14:05:24.370Z,44.30
2018-07-11T14:07:32.103Z,45.00
2018-07-11T14:09:37.905Z,45.50
2018-07-11T14:11:41.996Z,47.20
2018-07-11T14:13:52.128Z,48.80
2018-07-11T14:15:59.409Z,50.40
2018-07-11T14:18:04.284Z,51.90
2018-07-11T14:20:09.494Z,52.70
2018-07-11T14:22:16.841Z,53.50
2018-07-11T14:26:36.179Z,55.00
2018-07-11T14:28:48.307Z,55.30
2018-07-11T14:30:52.356Z,55.30
2018-07-11T14:33:05.561Z,55.30
2018-07-11T14:35:10.348Z,55.00
2018-07-11T14:37:14.276Z,54.30
2018-07-11T14:41:51.622Z,54.20
2018-07-11T14:43:56.419Z,53.60
2018-07-11T14:48:15.623Z,52.70
2018-07-11T14:50:24.365Z,52.20
2018-07-11T14:52:29.988Z,51.50
2018-07-11T14:54:39.027Z,51.40
2018-07-11T14:56:44.060Z,51.50
2018-07-11T14:58:53.428Z,51.60
2018-07-11T15:00:58.156Z,51.30
2018-07-11T15:03:03.909Z,51.40
2018-07-11T15:05:08.627Z,51.00
2018-07-11T15:07:12.670Z,49.20
2018-07-11T15:09:22.675Z,49.50
2018-07-11T15:11:27.212Z,48.60
2018-07-11T15:16:07.389Z,49.50
2018-07-11T15:18:12.393Z,48.80
2018-07-11T15:20:17.157Z,48.90
2018-07-11T15:22:24.359Z,49.60
2018-07-11T15:24:29.665Z,47.80
2018-07-11T15:26:33.791Z,48.30
2018-07-11T15:28:39.359Z,49.80
2018-07-11T15:30:46.787Z,49.50
2018-07-11T15:32:54.759Z,49.80
2018-07-11T15:34:59.233Z,50.50
2018-07-11T15:37:03.793Z,51.90
2018-07-11T15:39:09.047Z,53.80
2018-07-11T15:41:20.703Z,55.00
2018-07-11T15:43:34.552Z,56.10
2018-07-11T15:45:40.472Z,57.60
2018-07-11T15:47:45.088Z,56.70
2018-07-11T15:49:53.234Z,57.80
2018-07-11T15:51:58.737Z,58.80
2018-07-11T15:54:06.816Z,59.40
2018-07-11T15:56:36.618Z,59.70
2018-07-11T15:58:40.836Z,59.90
2018-07-11T16:00:50.839Z,59.40
2018-07-11T16:03:05.303Z,60.30
2018-07-11T16:05:11.963Z,60.20
2018-07-11T16:07:18.249Z,60.30
2018-07-11T16:09:24.557Z,60.70
2018-07-11T16:11:36.370Z,60.00
2018-07-11T16:13:42.586Z,61.10
2018-07-11T16:16:00.684Z,60.30
2018-07-11T16:18:09.721Z,59.80
2018-07-11T16:20:18.752Z,60.20
2018-07-11T16:22:28.956Z,60.20
2018-07-11T16:24:35.233Z,59.40
2018-07-11T16:28:49.676Z,60.40
2018-07-11T16:30:58.616Z,61.20
2018-07-11T16:33:03.780Z,61.10
2018-07-11T16:35:11.215Z,61.80
2018-07-11T16:37:27.863Z,61.00
2018-07-11T16:39:34.814Z,62.20
2018-07-11T16:41:45.516Z,63.20
2018-07-11T16:43:51.274Z,63.40
2018-07-11T16:46:19.140Z,62.80
2018-07-11T16:48:26.686Z,64.20
2018-07-11T16:50:31.283Z,64.10
2018-07-11T16:52:35.235Z,63.20
2018-07-11T16:54:40.354Z,63.80
2018-07-11T16:56:48.262Z,65.10
2018-07-11T16:58:58.564Z,67.10
2018-07-11T17:01:10.999Z,67.30
2018-07-11T17:03:18.113Z,68.10
2018-07-11T17:05:24.551Z,67.60
2018-07-11T17:07:33.097Z,68.30
2018-07-11T17:09:39.329Z,69.50
2018-07-11T17:11:43.749Z,68.00
2018-07-11T17:14:04.807Z,68.20
2018-07-11T17:16:19.712Z,67.00
2018-07-11T17:18:34.008Z,67.50
2018-07-11T17:20:40.856Z,67.90
2018-07-11T17:22:56.869Z,68.80
2018-07-11T17:25:03.899Z,67.90
2018-07-11T17:27:09.826Z,68.40
2018-07-11T17:29:28.134Z,69.60
2018-07-11T17:31:34.318Z,68.80
2018-07-11T17:33:39.310Z,67.80
2018-07-11T17:38:05.298Z,68.80
2018-07-11T17:40:13.661Z,68.80
2018-07-11T17:42:24.677Z,69.50
2018-07-11T17:44:32.020Z,68.70
2018-07-11T17:46:40.543Z,69.10
2018-07-11T17:48:54.324Z,68.80
2018-07-11T17:51:03.497Z,70.00
2018-07-11T17:53:13.820Z,70.40
2018-07-11T17:55:28.377Z,70.40
2018-07-11T17:57:45.761Z,70.80
2018-07-11T17:59:51.549Z,71.10
2018-07-11T18:02:03.280Z,71.70
2018-07-11T18:04:15.070Z,71.80
2018-07-11T18:08:28.304Z,71.90
2018-07-11T18:10:55.311Z,71.80
2018-07-11T18:13:17.308Z,72.10
2018-07-11T18:15:49.627Z,72.10
2018-07-11T18:19:10.891Z,73.10
2018-07-11T18:21:40.788Z,73.70
2018-07-11T18:26:02.361Z,73.50
2018-07-11T18:28:26.684Z,73.20
2018-07-11T18:30:47.471Z,74.20
2018-07-11T18:33:07.319Z,74.80
2018-07-11T18:35:19.345Z,75.00
2018-07-11T18:51:42.966Z,75.20
2018-07-11T18:54:12.275Z,75.70
2018-07-11T18:56:33.023Z,76.80
2018-07-11T18:58:49.385Z,76.50
2018-07-11T19:01:10.437Z,76.60
2018-07-11T19:05:39.483Z,77.10
2018-07-11T19:07:50.484Z,77.50
2018-07-11T19:09:59.202Z,77.60
2018-07-11T19:14:17.756Z,78.70
2018-07-11T19:16:29.742Z,78.40
2018-07-11T19:18:43.415Z,78.90
2018-07-11T19:21:27.193Z,79.20
2018-07-11T19:24:13.697Z,79.50
2018-07-11T19:27:27.105Z,80.20
2018-07-11T19:29:47.486Z,80.60
2018-07-11T19:32:12.456Z,81.60
2018-07-11T19:34:58.448Z,81.80
2018-07-11T19:37:15.745Z,82.40
2018-07-11T19:40:36.123Z,82.80
2018-07-11T19:42:50.670Z,82.80
2018-07-11T19:45:08.753Z,83.60
2018-07-11T19:49:30.262Z,84.00
2018-07-11T19:53:47.355Z,83.80
2018-07-11T19:56:07.894Z,84.20
2018-07-11T19:58:13.624Z,84.20
2018-07-11T20:00:17.757Z,84.50
2018-07-11T20:02:26.403Z,84.70
2018-07-11T20:04:31.226Z,84.90
2018-07-11T20:06:36.287Z,84.70
2018-07-11T20:08:41.771Z,84.90
2018-07-11T20:10:57.802Z,85.00
2018-07-11T20:13:05.252Z,85.20
2018-07-11T20:15:10.239Z,85.80
2018-07-11T20:17:15.173Z,86.90
2018-07-11T20:19:22.285Z,87.70
2018-07-11T20:24:13.180Z,88.20
2018-07-11T20:26:17.608Z,88.60
2018-07-11T20:28:25.953Z,88.80
2018-07-11T20:33:18.294Z,89.70
2018-07-11T20:35:25.238Z,89.80
2018-07-11T20:37:31.406Z,89.40
2018-07-11T20:39:41.434Z,89.90
2018-07-11T20:41:58.708Z,90.00
2018-07-11T20:46:15.966Z,90.00
2018-07-11T20:48:24.419Z,90.20
2018-07-11T20:50:33.000Z,90.20
2018-07-11T20:52:39.630Z,90.30
2018-07-11T20:54:46.758Z,90.20
2018-07-11T20:56:54.387Z,90.40
2018-07-11T20:59:11.816Z,90.50
2018-07-11T21:01:30.021Z,90.60
2018-07-11T21:03:48.120Z,90.80
2018-07-11T21:10:19.398Z,90.80
2018-07-11T21:12:43.940Z,90.80
2018-07-11T21:17:34.919Z,91.30
2018-07-11T21:19:44.605Z,91.50
2018-07-11T21:21:51.487Z,91.50
2018-07-11T21:24:01.726Z,91.60
2018-07-11T21:26:08.319Z,91.80
2018-07-11T21:28:14.610Z,92.00
2018-07-11T21:30:21.779Z,92.10
2018-07-11T21:32:27.869Z,92.20
2018-07-11T21:34:38.319Z,92.40
2018-07-11T21:36:43.609Z,92.50
2018-07-11T21:38:48.914Z,92.50
2018-07-11T21:40:56.956Z,92.50
2018-07-11T21:45:13.285Z,92.00
2018-07-11T21:47:27.995Z,91.70
2018-07-11T21:49:36.826Z,91.30
2018-07-11T21:51:43.430Z,91.10
2018-07-11T21:53:57.537Z,91.10
2018-07-11T21:56:06.547Z,91.00
2018-07-11T21:58:15.350Z,90.90
2018-07-11T22:00:38.424Z,91.10
2018-07-11T22:02:43.147Z,91.10
2018-07-11T22:04:48.607Z,91.20
2018-07-11T22:06:57.688Z,91.00
2018-07-11T22:09:03.525Z,91.20
2018-07-11T22:11:09.569Z,91.40
2018-07-11T22:13:16.524Z,91.40
2018-07-11T22:15:21.364Z,91.00
2018-07-11T22:17:37.325Z,90.90
2018-07-11T22:19:42.329Z,90.90
2018-07-11T22:21:46.792Z,90.40
2018-07-11T22:23:49.428Z,90.30
2018-07-11T22:25:52.407Z,90.20
2018-07-11T22:27:56.110Z,90.30
2018-07-11T22:29:59.342Z,90.50
2018-07-11T22:32:06.089Z,90.40
2018-07-11T22:34:09.823Z,90.50
2018-07-11T22:36:12.920Z,90.40
2018-07-11T22:38:15.628Z,90.60
2018-07-11T22:40:19.622Z,90.80
2018-07-11T22:42:22.247Z,90.70
2018-07-11T22:44:25.844Z,90.80
2018-07-11T22:46:32.666Z,90.70
2018-07-11T22:50:39.911Z,90.50
2018-07-11T22:52:44.817Z,90.30
2018-07-11T22:54:49.457Z,90.40
2018-07-11T22:56:53.797Z,90.40
2018-07-11T22:59:00.218Z,90.30
2018-07-11T23:01:05.096Z,90.40
2018-07-11T23:03:07.765Z,90.50
2018-07-11T23:05:11.133Z,90.50
2018-07-11T23:07:13.738Z,90.50
2018-07-11T23:09:17.338Z,90.50
2018-07-11T23:11:21.425Z,90.70
2018-07-11T23:13:30.528Z,90.60
2018-07-11T23:15:35.104Z,90.70
2018-07-11T23:17:41.737Z,90.80
2018-07-11T23:19:44.408Z,90.90
2018-07-11T23:21:48.333Z,90.90
2018-07-11T23:23:52.967Z,90.90
2018-07-11T23:25:56.277Z,90.80
2018-07-11T23:28:00.519Z,90.70
2018-07-11T23:30:05.672Z,90.70
2018-07-11T23:32:08.356Z,90.60
2018-07-11T23:34:11.362Z,90.50
2018-07-11T23:36:18.330Z,90.50
2018-07-11T23:38:23.080Z,90.60
2018-07-11T23:40:28.026Z,90.50
2018-07-11T23:42:31.039Z,90.60
2018-07-11T23:44:34.351Z,90.70
2018-07-11T23:46:37.728Z,90.60
2018-07-11T23:48:46.302Z,90.70
2018-07-11T23:50:51.410Z,90.70
2018-07-11T23:52:54.717Z,90.60
2018-07-11T23:54:58.827Z,90.50
2018-07-11T23:57:02.480Z,90.50
2018-07-11T23:59:06.464Z,90.40
